首页
METAR-TAF:

METAR-TAF

机场 :

Bradford, 宾夕法尼亚州, 美国

纬度: 41-47-55N, 经度: 078-38-09W, 海拔: 653米

当前天气观测

该预报发布于22分钟前的04:24 UTC
风速8节,风向西,有时为17节阵风,在西南西转西北之间变化
温度 -2°C
湿度 74%
气压 1012 hPa
能見度: 6.4公里
散云层高于1100英尺
多云层高于1700英尺
阴天层高于2400英尺
小雪

METAR: KBFD 190424Z AUTO 26008G17KT 230V290 4SM -SN SCT011 BKN017 OVC024 M02/M06 A2989 RMK AO2 P0000 T10171061

时间: 23:46 (04:46 UTC)

预报

该预报发布于1小时和27分钟前的03:19 UTC
预报有效从19日的 03点(UTC)到 19日的 24点(UTC)
风速7节,风向西
能見度: 6.4公里
阴天层高于1100英尺
小雪
短暂存在
从 19日的 03点(UTC)到 19日的 04点(UTC)
能見度: 3.2公里
小雪
从 19日的 0900点(UTC)
风速7节,风向西
能見度: 10公里
散云层高于1500英尺
阴天层高于2500英尺
小阵雪
从 19日的 1500点(UTC)
风速9节,风向西转西北,有时为17节阵风
能見度: 10公里
多云层高于2500英尺

TAF: KBFD 190319Z 1903/1924 27007KT 4SM -SN OVC011 TEMPO 1903/1904 2SM -SN FM190900 26007KT P6SM -SHSN SCT015 OVC025 FM191500 29009G17KT P6SM BKN025

超过4000个机场的气象观测和天气预报(METAR&TAF报告)。

可查询的气象台以黄色和红色小点在地图上表示。

将鼠标移到小点上方,可查看气象台名称。

然后点击查看天气观测和预报。

如需切换地图:点击带黑十字的绿色按钮放大地图;点击带横线的绿色按钮缩小地图;或者点击绿色箭头查看邻近地区的地图。


METAR-TAF: